Time;durP1;ratioP1;P1;durP2;ratioP2;P2;SDS_P1;SDS_P2;PMS_P1;PMS_P2;Temp;Humidity;BMP_temperature;BMP_pressure;BME280_temperature;BME280_humidity;BME280_pressure;Samples;Min_cycle;Max_cycle;Signal;HPM_P1;HPM_P2
2022/10/18 00:00:50;;;;;;;6.37;5.53;;;18.50;99.90;;;;;;5050062;28;20246;-33
2022/10/18 00:03:18;;;;;;;6.10;5.50;;;18.50;99.90;;;;;;5050095;28;20226;-32
2022/10/18 00:05:46;;;;;;;9.40;6.23;;;18.50;99.90;;;;;;5049981;28;20208;-33
2022/10/18 00:08:15;;;;;;;7.83;6.07;;;18.50;99.90;;;;;;5049883;28;20215;-32
2022/10/18 00:10:45;;;;;;;6.63;5.83;;;18.50;99.90;;;;;;5049960;28;20219;-32
2022/10/18 00:13:13;;;;;;;8.07;6.53;;;18.50;99.90;;;;;;5049951;28;20201;-33
2022/10/18 00:15:51;;;;;;;6.93;6.07;;;18.50;99.90;;;;;;5050171;28;20224;-32
2022/10/18 00:18:18;;;;;;;6.70;5.47;;;18.60;99.90;;;;;;5049304;28;20254;-33
2022/10/18 00:20:59;;;;;;;7.47;6.13;;;18.50;99.90;;;;;;5049884;28;20231;-33
2022/10/18 00:23:27;;;;;;;8.10;6.60;;;18.50;99.90;;;;;;5050340;28;20198;-33
2022/10/18 00:26:00;;;;;;;7.07;6.17;;;18.50;99.90;;;;;;5049878;28;20208;-33
2022/10/18 00:28:27;;;;;;;9.10;6.33;;;18.50;99.90;;;;;;5048211;28;20204;-33
2022/10/18 00:30:54;;;;;;;8.20;6.07;;;18.50;99.90;;;;;;5049522;28;20215;-33
2022/10/18 00:33:23;;;;;;;7.20;6.00;;;18.50;99.90;;;;;;5049904;28;20205;-33
2022/10/18 00:35:51;;;;;;;7.10;5.60;;;18.50;99.90;;;;;;5049456;28;20217;-33
2022/10/18 00:38:18;;;;;;;8.07;6.23;;;18.50;99.90;;;;;;5049454;28;20228;-33
2022/10/18 00:40:45;;;;;;;6.73;5.97;;;18.50;99.90;;;;;;5049716;28;20701;-33
2022/10/18 00:43:16;;;;;;;7.87;6.00;;;18.50;99.90;;;;;;5049302;28;20254;-34
2022/10/18 00:45:43;;;;;;;6.90;5.70;;;18.60;99.90;;;;;;5049237;28;20232;-32
2022/10/18 00:48:12;;;;;;;7.13;5.80;;;18.50;99.90;;;;;;5049293;28;20616;-32
2022/10/18 00:50:41;;;;;;;7.07;5.63;;;18.60;99.90;;;;;;5049272;28;20220;-33
2022/10/18 00:53:14;;;;;;;6.43;5.73;;;18.60;99.90;;;;;;5049186;28;20204;-33
2022/10/18 00:55:41;;;;;;;8.43;5.90;;;18.60;99.90;;;;;;5047759;28;20209;-32
2022/10/18 00:58:10;;;;;;;6.17;5.47;;;18.60;99.90;;;;;;5051211;28;20207;-32
2022/10/18 01:00:39;;;;;;;7.20;6.07;;;18.60;99.90;;;;;;5068211;28;20231;-33
2022/10/18 01:03:08;;;;;;;7.43;5.77;;;18.60;99.90;;;;;;5064328;28;20698;-33
2022/10/18 01:05:40;;;;;;;7.13;6.37;;;18.60;99.90;;;;;;5062690;28;20200;-33
2022/10/18 01:08:40;;;;;;;8.00;6.60;;;18.60;99.90;;;;;;5048608;28;20192;-32
2022/10/18 01:11:27;;;;;;;7.73;6.40;;;18.60;99.90;;;;;;5052445;28;20258;-33
2022/10/18 01:14:12;;;;;;;8.50;6.33;;;18.60;99.90;;;;;;5048578;28;20188;-34
2022/10/18 01:17:12;;;;;;;9.87;6.73;;;18.60;99.90;;;;;;5047166;28;20250;-34
2022/10/18 01:19:48;;;;;;;7.07;5.87;;;18.60;99.90;;;;;;5048114;28;20604;-32
2022/10/18 01:22:28;;;;;;;7.10;6.40;;;18.50;99.90;;;;;;5047113;28;20203;-34
2022/10/18 01:25:06;;;;;;;7.17;6.10;;;18.50;99.90;;;;;;5046828;28;20215;-33
2022/10/18 01:28:01;;;;;;;7.73;6.10;;;18.50;99.90;;;;;;5048395;28;20200;-32
2022/10/18 01:30:44;;;;;;;8.27;6.53;;;18.50;99.90;;;;;;5048757;28;20208;-33
2022/10/18 01:33:39;;;;;;;8.87;6.00;;;18.50;99.90;;;;;;5048251;28;20926;-32
2022/10/18 01:36:14;;;;;;;6.90;6.20;;;18.50;99.90;;;;;;5046940;28;20200;-33
2022/10/18 01:38:43;;;;;;;9.97;6.53;;;18.50;99.90;;;;;;5047599;28;20222;-32
2022/10/18 01:41:14;;;;;;;8.87;6.83;;;18.50;99.90;;;;;;5048172;28;20592;-33
2022/10/18 01:43:44;;;;;;;8.73;6.80;;;18.50;99.90;;;;;;5048242;28;20200;-33
2022/10/18 01:46:17;;;;;;;9.00;6.97;;;18.50;99.90;;;;;;5048326;28;20204;-33
2022/10/18 01:48:45;;;;;;;7.20;6.43;;;18.50;99.90;;;;;;5048340;28;20203;-34
2022/10/18 01:51:12;;;;;;;9.70;6.87;;;18.50;99.90;;;;;;5048173;28;20626;-32
2022/10/18 01:53:39;;;;;;;8.38;6.57;;;18.50;99.90;;;;;;5063565;28;20243;-33
2022/10/18 01:56:20;;;;;;;9.23;7.20;;;18.50;99.90;;;;;;5048376;28;20276;-33
2022/10/18 01:58:56;;;;;;;9.17;6.97;;;18.50;99.90;;;;;;5048022;28;20208;-33
2022/10/18 02:01:35;;;;;;;9.27;7.10;;;18.50;99.90;;;;;;5046427;28;20562;-33
2022/10/18 02:04:21;;;;;;;8.40;6.82;;;18.50;99.90;;;;;;5048029;28;20184;-33
2022/10/18 02:06:56;;;;;;;8.45;6.65;;;18.50;99.90;;;;;;5047724;28;20262;-32
2022/10/18 02:09:38;;;;;;;10.10;7.00;;;18.50;99.90;;;;;;5047761;28;20620;-32
2022/10/18 02:12:11;;;;;;;8.13;6.90;;;18.50;99.90;;;;;;5047912;28;20233;-33
2022/10/18 02:14:40;;;;;;;9.77;7.65;;;18.50;99.90;;;;;;5047821;28;20214;-33
2022/10/18 02:17:11;;;;;;;10.40;6.53;;;18.50;99.90;;;;;;5047776;28;20210;-32
2022/10/18 02:19:46;;;;;;;8.13;7.20;;;18.50;99.90;;;;;;5047527;28;20243;-32
2022/10/18 02:22:15;;;;;;;7.63;6.70;;;18.50;99.90;;;;;;5047818;28;20207;-33
2022/10/18 02:24:52;;;;;;;7.67;6.87;;;18.50;99.90;;;;;;5047690;28;20715;-32
2022/10/18 02:27:19;;;;;;;10.93;7.50;;;18.50;99.90;;;;;;5047711;28;20204;-32
2022/10/18 02:29:46;;;;;;;10.07;7.43;;;18.50;99.90;;;;;;5047733;28;20263;-33
2022/10/18 02:32:42;;;;;;;9.60;7.23;;;18.40;99.90;;;;;;5047489;28;20588;-33
2022/10/18 02:35:20;;;;;;;9.20;7.20;;;18.50;99.90;;;;;;5047627;28;20677;-33
2022/10/18 02:37:52;;;;;;;8.13;7.27;;;18.40;99.90;;;;;;5047992;28;20223;-33
2022/10/18 02:40:20;;;;;;;7.77;6.90;;;18.40;99.90;;;;;;5048936;28;20227;-33
2022/10/18 02:42:53;;;;;;;8.80;7.63;;;18.40;99.90;;;;;;5051777;28;20282;-33
2022/10/18 02:45:20;;;;;;;8.97;7.20;;;18.40;99.90;;;;;;5051475;28;20716;-33
2022/10/18 02:47:47;;;;;;;10.93;7.80;;;18.40;99.90;;;;;;5051591;28;20200;-32
2022/10/18 02:50:17;;;;;;;9.83;7.77;;;18.40;99.90;;;;;;5051784;28;20716;-33
2022/10/18 02:52:44;;;;;;;9.37;8.13;;;18.40;99.90;;;;;;5051506;28;20216;-33
2022/10/18 02:55:15;;;;;;;9.70;7.70;;;18.40;99.90;;;;;;5051349;28;20227;-33
2022/10/18 02:57:43;;;;;;;9.15;7.32;;;18.40;99.90;;;;;;5051373;28;20724;-33
2022/10/18 03:00:10;;;;;;;9.60;7.27;;;18.40;99.90;;;;;;5051212;28;20224;-33
2022/10/18 03:02:42;;;;;;;8.70;6.93;;;18.30;99.90;;;;;;5051304;28;20204;-33
2022/10/18 03:05:09;;;;;;;10.63;8.18;;;18.30;99.90;;;;;;5066382;28;20592;-32
2022/10/18 03:07:36;;;;;;;8.23;7.30;;;18.30;99.90;;;;;;5051048;28;20203;-32
2022/10/18 03:10:04;;;;;;;10.38;7.85;;;18.30;99.90;;;;;;5051384;28;20283;-33
2022/10/18 03:12:31;;;;;;;10.98;7.88;;;18.30;99.90;;;;;;5050937;28;20227;-33
2022/10/18 03:14:59;;;;;;;9.47;7.47;;;18.30;99.90;;;;;;5050769;28;20583;-33
2022/10/18 03:17:26;;;;;;;12.18;8.48;;;18.30;99.90;;;;;;5051566;28;20670;-32
2022/10/18 03:19:53;;;;;;;11.30;7.77;;;18.30;99.90;;;;;;5050761;28;20224;-33
2022/10/18 03:22:24;;;;;;;10.32;8.43;;;18.30;99.90;;;;;;5049421;28;20204;-33
2022/10/18 03:24:51;;;;;;;9.93;7.87;;;18.30;99.90;;;;;;5050654;28;20199;-33
2022/10/18 03:27:21;;;;;;;8.70;7.80;;;18.40;99.90;;;;;;5050797;28;20572;-33
2022/10/18 03:29:48;;;;;;;9.03;8.13;;;18.40;99.90;;;;;;5051245;28;20215;-33
2022/10/18 03:32:15;;;;;;;8.73;7.82;;;18.40;99.90;;;;;;5051061;28;20200;-33
2022/10/18 03:34:42;;;;;;;10.33;7.93;;;18.30;99.90;;;;;;5050606;28;20303;-32
2022/10/18 03:37:10;;;;;;;10.02;7.97;;;18.30;99.90;;;;;;5050628;28;20216;-33
2022/10/18 03:39:37;;;;;;;11.07;7.97;;;18.30;99.90;;;;;;5050686;28;20303;-33
2022/10/18 03:42:06;;;;;;;9.13;8.00;;;18.30;99.90;;;;;;5050345;28;20246;-33
2022/10/18 03:44:33;;;;;;;9.33;7.80;;;18.30;99.90;;;;;;5050553;28;20206;-33
2022/10/18 03:47:03;;;;;;;8.93;8.03;;;18.40;99.90;;;;;;5050426;28;20192;-33
2022/10/18 03:49:32;;;;;;;9.27;7.93;;;18.40;99.90;;;;;;5050461;28;20204;-33
2022/10/18 03:52:04;;;;;;;9.82;8.20;;;18.40;99.90;;;;;;5048214;28;20195;-32
2022/10/18 03:54:32;;;;;;;9.70;8.00;;;18.40;99.90;;;;;;5050392;28;20220;-33
2022/10/18 03:56:59;;;;;;;12.17;7.87;;;18.40;99.90;;;;;;5050444;28;20189;-33
2022/10/18 03:59:26;;;;;;;9.07;8.10;;;18.40;99.90;;;;;;5050417;28;20608;-33
2022/10/18 04:01:56;;;;;;;8.70;7.80;;;18.40;99.90;;;;;;5050325;28;20212;-33
2022/10/18 04:04:26;;;;;;;8.77;7.87;;;18.40;99.90;;;;;;5050171;28;20628;-33
2022/10/18 04:06:55;;;;;;;9.65;8.32;;;18.40;99.90;;;;;;5049977;28;20189;-33
2022/10/18 04:09:22;;;;;;;9.10;8.18;;;18.40;99.90;;;;;;5050012;28;20192;-32
2022/10/18 04:11:52;;;;;;;11.53;8.30;;;18.40;99.90;;;;;;5064812;28;20208;-32
2022/10/18 04:14:22;;;;;;;10.63;8.57;;;18.40;99.90;;;;;;5049806;28;20204;-32
2022/10/18 04:16:49;;;;;;;10.47;7.87;;;18.40;99.90;;;;;;5049662;28;20197;-33
2022/10/18 04:19:16;;;;;;;12.57;8.75;;;18.40;99.90;;;;;;5049533;28;20239;-32
2022/10/18 04:21:44;;;;;;;10.33;8.70;;;18.40;99.90;;;;;;5049581;28;20224;-33
2022/10/18 04:24:11;;;;;;;9.93;8.70;;;18.40;99.90;;;;;;5049591;28;20192;-33
2022/10/18 04:26:38;;;;;;;9.83;8.30;;;18.40;99.90;;;;;;5049601;28;20204;-33
2022/10/18 04:29:05;;;;;;;13.95;8.23;;;18.40;99.90;;;;;;5064745;28;20231;-33
2022/10/18 04:31:33;;;;;;;10.33;8.57;;;18.40;99.90;;;;;;5064712;28;20227;-32
2022/10/18 04:34:01;;;;;;;13.40;7.97;;;18.40;99.90;;;;;;5048075;28;20678;-33
2022/10/18 04:36:29;;;;;;;12.37;8.60;;;18.40;99.90;;;;;;5064442;28;20639;-32
2022/10/18 04:38:56;;;;;;;16.23;8.93;;;18.40;99.90;;;;;;5049593;28;20208;-33
2022/10/18 04:41:23;;;;;;;13.63;8.90;;;18.40;99.90;;;;;;5047946;28;20742;-33
2022/10/18 04:43:51;;;;;;;8.90;7.97;;;18.40;99.90;;;;;;5049554;28;20267;-33
2022/10/18 04:46:18;;;;;;;9.30;8.40;;;18.40;99.90;;;;;;5049218;28;20212;-34
2022/10/18 04:48:45;;;;;;;10.83;9.33;;;18.40;99.90;;;;;;5064535;28;20192;-33
2022/10/18 04:51:12;;;;;;;12.00;9.88;;;18.40;99.90;;;;;;5049189;28;20212;-33
2022/10/18 04:53:39;;;;;;;11.63;9.20;;;18.40;99.90;;;;;;5049139;28;20722;-33
2022/10/18 04:56:07;;;;;;;12.07;9.67;;;18.40;99.90;;;;;;5064201;28;20293;-33
2022/10/18 04:58:34;;;;;;;10.20;9.03;;;18.40;99.90;;;;;;5048981;28;20197;-33
2022/10/18 05:01:06;;;;;;;10.63;9.20;;;18.40;99.90;;;;;;5048727;28;20248;-33
2022/10/18 05:03:34;;;;;;;11.47;9.00;;;18.40;99.90;;;;;;5049210;28;20683;-33
2022/10/18 05:06:04;;;;;;;11.30;9.27;;;18.40;99.90;;;;;;5049104;28;20200;-33
2022/10/18 05:08:33;;;;;;;13.53;10.17;;;18.40;99.90;;;;;;5047492;28;20772;-33
2022/10/18 05:11:00;;;;;;;13.43;9.90;;;18.40;99.90;;;;;;5048808;28;20700;-34
2022/10/18 05:13:31;;;;;;;12.83;9.97;;;18.40;99.90;;;;;;5048909;28;20515;-33
2022/10/18 05:15:59;;;;;;;12.57;10.00;;;18.40;99.90;;;;;;5048569;28;20192;-33
2022/10/18 05:18:26;;;;;;;11.63;9.43;;;18.40;99.90;;;;;;5048395;28;20240;-33
2022/10/18 05:20:53;;;;;;;12.53;9.13;;;18.40;99.90;;;;;;5048729;28;20220;-33
2022/10/18 05:23:21;;;;;;;10.40;9.30;;;18.40;99.90;;;;;;5048392;28;20678;-33
2022/10/18 05:25:50;;;;;;;11.80;8.90;;;18.40;99.90;;;;;;5048448;28;20215;-33
2022/10/18 05:28:18;;;;;;;10.88;9.18;;;18.40;99.90;;;;;;5048460;28;20230;-33
2022/10/18 05:31:09;;;;;;;10.67;8.63;;;18.40;99.90;;;;;;5048458;28;20968;-34
2022/10/18 05:33:38;;;;;;;11.00;9.20;;;18.40;99.90;;;;;;5046919;28;20764;-32
2022/10/18 05:36:06;;;;;;;11.53;8.50;;;18.40;99.90;;;;;;5048761;28;20191;-32
2022/10/18 05:38:33;;;;;;;11.13;8.80;;;18.40;99.90;;;;;;5047065;28;20204;-33
2022/10/18 05:41:05;;;;;;;13.43;9.77;;;18.40;99.90;;;;;;5048033;28;20599;-34
2022/10/18 05:43:33;;;;;;;10.47;8.37;;;18.40;99.90;;;;;;5063540;28;20270;-33
2022/10/18 05:46:00;;;;;;;11.43;8.53;;;18.40;99.90;;;;;;5048004;28;20196;-33
2022/10/18 05:48:27;;;;;;;12.00;8.83;;;18.40;99.90;;;;;;5047800;28;20209;-31
2022/10/18 05:50:58;;;;;;;13.17;9.53;;;18.30;99.90;;;;;;5047827;28;20205;-33
2022/10/18 05:53:28;;;;;;;10.30;8.90;;;18.30;99.90;;;;;;5048070;28;20394;-33
2022/10/18 05:56:05;;;;;;;12.67;9.60;;;18.30;99.90;;;;;;5047635;28;20222;-33
2022/10/18 05:58:33;;;;;;;13.83;9.43;;;18.30;99.90;;;;;;5047765;28;20286;-33
2022/10/18 06:01:04;;;;;;;14.90;9.05;;;18.30;99.90;;;;;;5047682;28;20742;-33
2022/10/18 06:03:32;;;;;;;16.53;9.50;;;18.20;99.90;;;;;;5047680;28;20247;-32
2022/10/18 06:06:00;;;;;;;11.27;9.13;;;18.20;99.90;;;;;;5047459;28;20200;-33
2022/10/18 06:08:28;;;;;;;10.70;8.73;;;18.20;99.90;;;;;;5047341;28;20287;-33
2022/10/18 06:10:58;;;;;;;12.30;9.60;;;18.20;99.90;;;;;;5047438;28;20200;-32
2022/10/18 06:13:25;;;;;;;10.90;8.73;;;18.20;99.90;;;;;;5047515;28;20706;-33
2022/10/18 06:15:56;;;;;;;10.87;9.03;;;18.10;99.90;;;;;;5047207;28;20235;-32
2022/10/18 06:18:23;;;;;;;16.37;9.90;;;18.10;99.90;;;;;;5047392;28;20247;-33
2022/10/18 06:20:58;;;;;;;14.37;10.27;;;18.10;99.90;;;;;;5046149;28;20305;-32
2022/10/18 06:23:29;;;;;;;14.23;10.00;;;18.10;99.90;;;;;;5047504;28;20262;-33
2022/10/18 06:26:07;;;;;;;15.23;10.50;;;18.10;99.90;;;;;;5047274;28;20196;-33
2022/10/18 06:28:36;;;;;;;15.73;9.97;;;18.00;99.90;;;;;;5047379;28;20254;-33
2022/10/18 06:31:04;;;;;;;14.43;9.97;;;18.00;99.90;;;;;;5047277;28;20291;-32
2022/10/18 06:33:36;;;;;;;13.20;9.33;;;18.00;99.90;;;;;;5047309;28;20240;-33
2022/10/18 06:36:12;;;;;;;15.43;9.67;;;18.00;99.90;;;;;;5047319;28;20210;-32
2022/10/18 06:38:42;;;;;;;13.93;9.83;;;18.00;99.90;;;;;;5047292;28;20223;-32
2022/10/18 06:41:09;;;;;;;10.80;8.90;;;18.00;99.90;;;;;;5045494;28;20224;-33
2022/10/18 06:43:40;;;;;;;12.97;9.83;;;18.00;99.90;;;;;;5047404;28;20611;-34
2022/10/18 06:46:07;;;;;;;14.60;9.90;;;18.00;99.90;;;;;;5047299;28;20200;-33
2022/10/18 06:48:38;;;;;;;12.10;9.30;;;18.00;99.90;;;;;;5047642;28;20687;-32
2022/10/18 06:51:06;;;;;;;12.40;9.10;;;18.00;99.90;;;;;;5047226;28;20202;-32
2022/10/18 06:53:36;;;;;;;11.83;9.23;;;18.00;99.90;;;;;;5047229;28;20281;-32
2022/10/18 06:56:19;;;;;;;15.05;10.15;;;18.00;99.90;;;;;;5047557;28;20204;-32
2022/10/18 06:58:48;;;;;;;15.23;10.10;;;18.00;99.90;;;;;;5047173;28;20212;-33
2022/10/18 07:01:17;;;;;;;14.48;10.05;;;18.00;99.90;;;;;;5046880;28;20216;-32
2022/10/18 07:03:46;;;;;;;11.63;9.50;;;18.00;99.90;;;;;;5046892;28;20205;-31
2022/10/18 07:06:16;;;;;;;13.67;9.37;;;18.00;99.90;;;;;;5047290;28;20754;-32
2022/10/18 07:08:44;;;;;;;15.48;9.60;;;18.10;99.90;;;;;;5047243;28;20671;-33
2022/10/18 07:11:17;;;;;;;13.93;9.45;;;18.10;99.90;;;;;;5046876;28;20231;-33
2022/10/18 07:13:44;;;;;;;13.05;10.18;;;18.10;99.90;;;;;;5046949;28;20270;-31
2022/10/18 07:16:14;;;;;;;13.93;9.68;;;18.10;99.90;;;;;;5047180;28;20667;-32
2022/10/18 07:18:48;;;;;;;15.55;10.07;;;18.10;99.90;;;;;;5046768;28;20318;-33
2022/10/18 07:21:18;;;;;;;25.10;10.93;;;18.10;99.90;;;;;;5047058;28;20268;-32
2022/10/18 07:23:46;;;;;;;21.60;10.77;;;18.10;99.90;;;;;;5046970;28;20201;-32
2022/10/18 07:26:16;;;;;;;15.43;9.90;;;18.10;99.90;;;;;;5046985;28;20215;-32
2022/10/18 07:28:47;;;;;;;12.73;9.23;;;18.10;99.90;;;;;;5050684;28;20193;-33
2022/10/18 07:31:14;;;;;;;14.85;9.45;;;18.20;99.90;;;;;;5050335;28;20667;-32
2022/10/18 07:33:42;;;;;;;10.90;9.27;;;18.20;99.90;;;;;;5050701;28;20208;-32
2022/10/18 07:36:12;;;;;;;12.63;9.47;;;18.20;99.90;;;;;;5050736;28;20204;-33
2022/10/18 07:38:40;;;;;;;13.17;9.30;;;18.20;99.90;;;;;;5050460;28;20196;-32
2022/10/18 07:41:09;;;;;;;14.52;9.40;;;18.20;99.90;;;;;;5050145;28;20231;-32
2022/10/18 07:43:41;;;;;;;13.33;10.00;;;18.10;99.90;;;;;;5050204;28;20303;-32
2022/10/18 07:46:11;;;;;;;14.07;9.83;;;18.10;99.90;;;;;;5050474;28;20193;-32
2022/10/18 07:48:39;;;;;;;15.57;10.13;;;18.10;99.90;;;;;;5049053;28;20192;-31
2022/10/18 07:51:06;;;;;;;19.13;10.90;;;18.10;99.90;;;;;;5050304;28;20678;-32
2022/10/18 07:53:34;;;;;;;17.17;10.30;;;18.10;99.90;;;;;;5050237;28;20609;-31
2022/10/18 07:56:04;;;;;;;16.23;9.23;;;18.00;99.90;;;;;;5049901;28;20295;-32
2022/10/18 07:58:35;;;;;;;13.52;9.65;;;18.00;99.90;;;;;;5049841;28;20210;-32
2022/10/18 08:01:07;;;;;;;12.73;9.03;;;18.00;99.90;;;;;;5048326;28;20236;-31
2022/10/18 08:03:35;;;;;;;13.30;8.87;;;18.00;99.90;;;;;;5049797;28;20216;-32
2022/10/18 08:06:07;;;;;;;16.10;9.90;;;18.00;99.90;;;;;;5049972;28;20239;-33
2022/10/18 08:08:36;;;;;;;14.47;9.47;;;18.00;99.90;;;;;;5050126;28;20192;-32
2022/10/18 08:11:07;;;;;;;12.93;9.60;;;18.00;99.90;;;;;;5049807;28;20628;-33
2022/10/18 08:13:34;;;;;;;15.63;9.63;;;18.00;99.90;;;;;;5049646;28;20204;-33
2022/10/18 08:16:05;;;;;;;17.33;10.30;;;18.00;99.90;;;;;;5049512;28;20204;-32
2022/10/18 08:18:32;;;;;;;15.30;9.80;;;18.00;99.90;;;;;;5049335;28;20788;-32
2022/10/18 08:21:00;;;;;;;13.73;9.87;;;18.00;99.90;;;;;;5049314;28;20572;-31
2022/10/18 08:23:27;;;;;;;12.60;9.53;;;18.00;99.90;;;;;;5048644;28;20204;-32
2022/10/18 08:25:55;;;;;;;16.10;10.53;;;18.00;99.90;;;;;;5049450;28;20291;-33
2022/10/18 08:28:22;;;;;;;18.23;10.97;;;18.00;99.90;;;;;;5049698;28;20594;-32
2022/10/18 08:30:49;;;;;;;19.13;12.07;;;18.00;99.90;;;;;;5049694;28;20652;-33
2022/10/18 08:33:19;;;;;;;17.27;11.27;;;18.00;99.90;;;;;;5049361;28;20205;-32
2022/10/18 08:35:58;;;;;;;17.20;11.27;;;18.00;99.90;;;;;;5047795;28;20220;-33
2022/10/18 08:38:28;;;;;;;17.40;11.07;;;18.10;99.90;;;;;;5048704;28;20199;-32
2022/10/18 08:41:21;;;;;;;19.20;12.67;;;18.10;99.90;;;;;;5049232;28;20671;-32
2022/10/18 08:44:06;;;;;;;20.90;12.90;;;18.10;99.90;;;;;;5048842;28;20626;-32
2022/10/18 08:46:36;;;;;;;21.27;14.00;;;18.20;99.90;;;;;;5049114;28;20238;-32
2022/10/18 08:49:06;;;;;;;19.05;13.30;;;18.10;99.90;;;;;;5048919;28;20291;-33
2022/10/18 08:51:43;;;;;;;18.50;14.03;;;18.20;99.90;;;;;;5049100;28;20580;-32
2022/10/18 08:54:32;;;;;;;23.08;15.32;;;18.20;99.90;;;;;;5049101;28;20472;-32
2022/10/18 08:57:03;;;;;;;22.70;13.60;;;18.20;99.90;;;;;;5049058;28;20253;-32
2022/10/18 08:59:40;;;;;;;25.80;15.33;;;18.20;99.90;;;;;;5048818;28;20203;-32
2022/10/18 09:02:42;;;;;;;20.98;15.15;;;18.20;99.90;;;;;;5048487;28;20572;-32
2022/10/18 09:05:18;;;;;;;19.03;14.73;;;18.20;99.90;;;;;;5049557;28;20180;-33
2022/10/18 09:08:01;;;;;;;27.03;17.33;;;18.20;99.90;;;;;;5047098;28;20768;-33
2022/10/18 09:10:51;;;;;;;21.90;14.30;;;18.20;99.90;;;;;;5048609;28;20662;-33
2022/10/18 09:13:30;;;;;;;25.60;15.60;;;18.20;99.90;;;;;;5048324;28;20258;-30
2022/10/18 09:16:01;;;;;;;19.70;12.87;;;18.20;99.90;;;;;;5048618;28;20172;-31
2022/10/18 09:18:56;;;;;;;21.70;12.87;;;18.20;99.90;;;;;;5048392;28;20263;-32
2022/10/18 09:21:29;;;;;;;18.67;8.88;;;18.30;99.90;;;;;;5048576;28;20215;-32
2022/10/18 09:24:13;;;;;;;17.87;10.73;;;18.30;99.90;;;;;;5048200;28;20319;-32
2022/10/18 09:26:46;;;;;;;15.67;11.93;;;18.40;99.90;;;;;;5048053;28;20185;-33
2022/10/18 09:29:44;;;;;;;21.47;12.57;;;18.40;99.90;;;;;;5046933;28;20680;-32
2022/10/18 09:32:29;;;;;;;18.77;9.63;;;18.40;99.90;;;;;;5048282;28;20207;-32
2022/10/18 09:35:09;;;;;;;14.67;10.10;;;18.50;99.90;;;;;;5048254;28;20755;-32
2022/10/18 09:37:37;;;;;;;15.23;10.80;;;18.60;99.90;;;;;;5048050;28;20200;-32
2022/10/18 09:40:22;;;;;;;18.80;11.00;;;18.60;99.90;;;;;;5048340;28;20204;-32
2022/10/18 09:42:53;;;;;;;24.60;14.27;;;18.70;99.90;;;;;;5048004;28;20235;-32
2022/10/18 09:45:31;;;;;;;19.87;14.00;;;18.80;99.90;;;;;;5046622;28;20270;-32
2022/10/18 09:48:17;;;;;;;17.03;12.80;;;18.80;99.90;;;;;;5048252;28;20188;-32
2022/10/18 09:51:06;;;;;;;21.00;13.03;;;18.90;99.90;;;;;;5047282;28;20231;-32
2022/10/18 09:54:14;;;;;;;17.97;12.20;;;19.00;99.90;;;;;;5047865;28;20207;-33
2022/10/18 09:56:53;;;;;;;14.67;9.97;;;19.00;99.90;;;;;;5047811;28;20218;-33
2022/10/18 09:59:34;;;;;;;13.87;9.43;;;19.00;99.90;;;;;;5047915;28;20276;-32
2022/10/18 10:02:02;;;;;;;14.70;10.17;;;19.10;99.90;;;;;;5047371;28;20714;-32
2022/10/18 10:04:32;;;;;;;16.77;11.50;;;19.10;99.90;;;;;;5047536;28;20757;-33
2022/10/18 10:07:00;;;;;;;17.10;9.17;;;19.10;99.90;;;;;;5048019;28;20205;-32
2022/10/18 10:09:40;;;;;;;16.17;9.63;;;19.20;99.90;;;;;;5047804;28;20197;-31
2022/10/18 10:12:24;;;;;;;17.97;9.27;;;19.20;99.90;;;;;;5047635;28;20218;-33
2022/10/18 10:14:51;;;;;;;18.07;7.90;;;19.20;99.90;;;;;;5047828;28;20204;-32
2022/10/18 10:17:27;;;;;;;19.45;7.30;;;19.10;99.90;;;;;;5047665;28;20208;-32
2022/10/18 10:20:03;;;;;;;11.97;6.77;;;19.10;99.90;;;;;;5046074;28;20199;-32
2022/10/18 10:22:40;;;;;;;11.30;5.90;;;19.10;99.90;;;;;;5030290;28;20644;-30
2022/10/18 10:25:37;;;;;;;12.43;5.73;;;19.10;99.90;;;;;;5047876;28;20211;-31
2022/10/18 10:28:17;;;;;;;15.77;6.40;;;19.10;99.90;;;;;;5047385;28;20200;-32
2022/10/18 10:30:44;;;;;;;19.25;6.45;;;19.10;99.90;;;;;;5045672;28;20285;-31
2022/10/18 10:33:35;;;;;;;12.77;5.78;;;19.10;99.90;;;;;;5047379;28;20261;-32
2022/10/18 10:36:16;;;;;;;16.30;6.27;;;19.10;99.90;;;;;;5047322;28;20208;-34
2022/10/18 10:39:01;;;;;;;13.57;5.80;;;19.10;99.90;;;;;;5047128;28;20207;-32
2022/10/18 10:41:29;;;;;;;17.77;5.88;;;19.10;99.90;;;;;;5047132;28;20230;-31
2022/10/18 10:44:12;;;;;;;14.93;5.45;;;19.10;99.90;;;;;;5047098;28;20257;-32
2022/10/18 10:46:39;;;;;;;14.60;6.07;;;19.10;99.90;;;;;;5047046;28;20203;-32
2022/10/18 10:49:42;;;;;;;13.40;5.10;;;19.20;99.90;;;;;;5047222;28;20215;-32
2022/10/18 10:52:18;;;;;;;8.93;4.40;;;19.20;99.90;;;;;;5047531;28;20239;-32
2022/10/18 10:54:56;;;;;;;10.40;4.27;;;19.20;99.90;;;;;;5046855;28;20207;-32
2022/10/18 10:57:32;;;;;;;9.50;3.90;;;19.20;99.90;;;;;;5046828;28;20215;-32
2022/10/18 10:59:59;;;;;;;11.80;4.95;;;19.20;99.90;;;;;;5046817;28;20831;-32
2022/10/18 11:02:34;;;;;;;9.30;4.90;;;19.20;99.90;;;;;;5050377;28;20317;-32
2022/10/18 11:05:22;;;;;;;8.57;3.87;;;19.20;99.90;;;;;;5050726;28;20188;-32
2022/10/18 11:07:53;;;;;;;9.02;3.60;;;19.30;99.90;;;;;;5050879;28;20212;-32
2022/10/18 11:10:24;;;;;;;12.38;3.55;;;19.30;99.90;;;;;;5050727;28;20586;-32
2022/10/18 11:13:07;;;;;;;9.67;3.43;;;19.30;99.90;;;;;;5051046;28;20279;-32
2022/10/18 11:15:44;;;;;;;8.32;3.53;;;19.30;99.90;;;;;;5050424;28;20207;-32
2022/10/18 11:18:20;;;;;;;10.63;3.33;;;19.30;99.90;;;;;;5050088;28;20243;-32
2022/10/18 11:21:00;;;;;;;9.40;3.97;;;19.40;99.90;;;;;;5050023;28;20192;-31
2022/10/18 11:23:31;;;;;;;8.40;3.50;;;19.40;99.90;;;;;;5050320;28;20734;-31
2022/10/18 11:26:10;;;;;;;9.13;3.40;;;19.40;99.90;;;;;;5050274;28;20193;-32
2022/10/18 11:29:12;;;;;;;9.23;3.57;;;19.40;99.90;;;;;;5050265;28;20211;-32
2022/10/18 11:32:06;;;;;;;9.25;3.90;;;19.40;99.90;;;;;;5050180;28;20329;-31
2022/10/18 11:35:11;;;;;;;12.83;3.50;;;19.40;99.90;;;;;;5050147;28;20299;-32
2022/10/18 11:37:57;;;;;;;9.30;4.13;;;19.40;99.90;;;;;;5050277;28;20195;-32
2022/10/18 11:40:27;;;;;;;7.70;3.27;;;19.40;99.90;;;;;;5050609;28;20653;-31
2022/10/18 11:43:16;;;;;;;10.85;3.85;;;19.50;99.90;;;;;;5050441;28;20676;-32
2022/10/18 11:45:52;;;;;;;14.90;4.10;;;19.50;99.90;;;;;;5049764;28;20212;-32
2022/10/18 11:49:00;;;;;;;11.27;3.53;;;19.50;99.90;;;;;;5050439;28;20552;-32
2022/10/18 11:51:28;;;;;;;8.60;3.30;;;19.60;99.90;;;;;;5050309;28;20730;-32
2022/10/18 11:54:35;;;;;;;7.80;3.50;;;19.60;99.90;;;;;;5050330;28;20184;-32
2022/10/18 11:57:28;;;;;;;11.73;3.40;;;19.60;99.90;;;;;;5048785;28;20224;-33
2022/10/18 12:00:17;;;;;;;11.27;3.20;;;19.60;99.90;;;;;;5048719;28;20667;-32
2022/10/18 12:03:12;;;;;;;8.03;3.23;;;19.60;99.90;;;;;;5048418;28;20223;-31
2022/10/18 12:05:44;;;;;;;6.07;2.40;;;19.70;99.90;;;;;;5049756;28;20192;-32
2022/10/18 12:08:16;;;;;;;12.27;3.60;;;19.70;99.90;;;;;;5049767;28;20200;-31
2022/10/18 12:10:51;;;;;;;11.57;3.40;;;19.70;99.90;;;;;;5049561;28;20180;-31
2022/10/18 12:13:46;;;;;;;10.30;3.30;;;19.70;99.90;;;;;;5047706;28;20325;-32
2022/10/18 12:16:15;;;;;;;8.97;3.40;;;19.70;99.90;;;;;;5048077;28;20226;-32
2022/10/18 12:18:56;;;;;;;7.80;2.80;;;19.70;99.90;;;;;;5049774;28;20271;-32
2022/10/18 12:21:28;;;;;;;10.63;2.60;;;19.80;99.90;;;;;;5047772;28;20195;-32
2022/10/18 12:24:03;;;;;;;6.40;2.47;;;19.80;99.90;;;;;;5049707;28;20293;-33
2022/10/18 12:26:32;;;;;;;7.13;2.67;;;19.80;99.90;;;;;;5048103;28;20188;-33
2022/10/18 12:29:24;;;;;;;10.70;2.60;;;19.80;99.90;;;;;;5049357;28;20650;-32
2022/10/18 12:32:00;;;;;;;7.00;2.20;;;19.80;99.90;;;;;;5049231;28;20227;-32
2022/10/18 12:34:48;;;;;;;5.57;2.17;;;19.80;99.90;;;;;;5048927;28;20206;-32
2022/10/18 12:37:22;;;;;;;8.20;2.17;;;19.80;99.90;;;;;;5049063;28;20192;-32
2022/10/18 12:39:52;;;;;;;9.60;2.20;;;19.90;99.90;;;;;;5048861;28;20690;-33
2022/10/18 12:42:46;;;;;;;8.38;2.70;;;19.90;99.90;;;;;;5049320;28;20303;-32
2022/10/18 12:45:31;;;;;;;7.00;2.20;;;19.90;99.90;;;;;;5049719;28;20210;-32
2022/10/18 12:48:07;;;;;;;10.95;2.40;;;19.90;99.90;;;;;;5047501;28;20278;-31
2022/10/18 12:50:36;;;;;;;4.50;1.67;;;19.80;99.90;;;;;;5048754;28;20227;-32
2022/10/18 12:53:14;;;;;;;3.87;1.80;;;19.80;99.90;;;;;;5048884;28;20671;-33
2022/10/18 12:55:50;;;;;;;6.53;1.90;;;19.80;99.90;;;;;;5048949;28;20195;-32
2022/10/18 12:58:23;;;;;;;8.50;2.70;;;19.80;99.90;;;;;;5047563;28;20218;-32
2022/10/18 13:00:52;;;;;;;6.53;2.57;;;19.80;99.90;;;;;;5048489;28;20220;-32
2022/10/18 13:03:25;;;;;;;11.33;2.47;;;19.80;99.90;;;;;;5049092;28;20586;-32
2022/10/18 13:05:58;;;;;;;10.73;2.47;;;19.80;99.90;;;;;;5047279;28;20193;-32
2022/10/18 13:08:41;;;;;;;8.70;2.43;;;19.80;99.90;;;;;;5048528;28;20208;-32
2022/10/18 13:11:08;;;;;;;8.57;2.27;;;19.80;99.90;;;;;;5048196;28;20242;-31